createdAt,value
2018-05-15T00:00:26.572Z,19.20
2018-05-15T00:01:03.906Z,19.20
2018-05-15T00:01:41.221Z,19.20
2018-05-15T00:02:18.454Z,19.20
2018-05-15T00:02:56.630Z,19.20
2018-05-15T00:03:33.886Z,19.20
2018-05-15T00:04:11.212Z,19.20
2018-05-15T00:04:48.593Z,19.20
2018-05-15T00:05:26.711Z,19.20
2018-05-15T00:06:03.926Z,19.20
2018-05-15T00:06:41.102Z,19.20
2018-05-15T00:07:19.336Z,19.20
2018-05-15T00:07:57.314Z,19.30
2018-05-15T00:08:34.807Z,19.30
2018-05-15T00:09:12.213Z,19.30
2018-05-15T00:09:49.426Z,19.20
2018-05-15T00:10:27.525Z,19.20
2018-05-15T00:11:04.880Z,19.20
2018-05-15T00:11:42.797Z,19.20
2018-05-15T00:12:20.992Z,19.20
2018-05-15T00:12:58.282Z,19.20
2018-05-15T00:13:36.446Z,19.10
2018-05-15T00:14:13.722Z,19.10
2018-05-15T00:14:51.076Z,19.10
2018-05-15T00:15:29.299Z,19.20
2018-05-15T00:16:06.645Z,19.10
2018-05-15T00:16:43.968Z,19.20
2018-05-15T00:17:21.131Z,19.20
2018-05-15T00:17:59.307Z,19.20
2018-05-15T00:18:36.719Z,19.20
2018-05-15T00:19:14.788Z,19.20
2018-05-15T00:19:52.149Z,19.20
2018-05-15T00:20:29.453Z,19.20
2018-05-15T00:21:06.782Z,19.10
2018-05-15T00:21:44.009Z,19.20
2018-05-15T00:22:21.293Z,19.20
2018-05-15T00:22:58.625Z,19.20
2018-05-15T00:23:36.006Z,19.20
2018-05-15T00:24:13.397Z,19.20
2018-05-15T00:24:50.839Z,19.20
2018-05-15T00:25:28.241Z,19.20
2018-05-15T00:26:06.451Z,19.20
2018-05-15T00:26:43.754Z,19.20
2018-05-15T00:27:21.921Z,19.10
2018-05-15T00:28:00.125Z,19.10
2018-05-15T00:28:38.312Z,19.10
2018-05-15T00:29:15.484Z,19.10
2018-05-15T00:29:52.905Z,19.10
2018-05-15T00:30:30.320Z,19.10
2018-05-15T00:31:08.510Z,19.10
2018-05-15T00:31:46.733Z,19.10
2018-05-15T00:32:23.985Z,19.10
2018-05-15T00:33:02.183Z,19.10
2018-05-15T00:33:39.582Z,19.10
2018-05-15T00:34:16.974Z,19.10
2018-05-15T00:34:55.073Z,19.20
2018-05-15T00:35:32.344Z,19.20
2018-05-15T00:36:09.724Z,19.20
2018-05-15T00:36:47.881Z,19.20
2018-05-15T00:37:25.266Z,19.20
2018-05-15T00:38:03.470Z,19.20
2018-05-15T00:38:41.661Z,19.20
2018-05-15T00:39:19.747Z,19.20
2018-05-15T00:39:57.118Z,19.20
2018-05-15T00:40:34.542Z,19.20
2018-05-15T00:41:12.482Z,19.20
2018-05-15T00:41:49.855Z,19.20
2018-05-15T00:42:27.097Z,19.20
2018-05-15T00:43:05.404Z,19.20
2018-05-15T00:43:42.617Z,19.20
2018-05-15T00:44:20.095Z,19.20
2018-05-15T00:44:57.549Z,19.20
2018-05-15T00:45:34.922Z,19.20
2018-05-15T00:46:13.111Z,19.20
2018-05-15T00:46:50.575Z,19.20
2018-05-15T00:47:27.757Z,19.20
2018-05-15T00:48:05.976Z,19.30
2018-05-15T00:48:43.434Z,19.30
2018-05-15T00:49:20.814Z,19.30
2018-05-15T00:49:59.024Z,19.30
2018-05-15T00:50:37.265Z,19.30
2018-05-15T00:51:14.570Z,19.00
2018-05-15T00:51:51.843Z,19.30
2018-05-15T00:52:29.120Z,19.30
2018-05-15T00:53:06.590Z,19.30
2018-05-15T00:53:44.135Z,19.30
2018-05-15T00:54:21.463Z,19.30
2018-05-15T00:54:58.930Z,19.30
2018-05-15T00:55:36.250Z,19.20
2018-05-15T00:56:14.450Z,19.20
2018-05-15T00:56:51.795Z,19.20
2018-05-15T00:57:29.061Z,19.20
2018-05-15T00:58:06.230Z,19.20
2018-05-15T00:58:43.524Z,19.30
2018-05-15T00:59:20.876Z,19.30
2018-05-15T00:59:59.095Z,19.30
2018-05-15T01:00:36.248Z,19.30
2018-05-15T01:01:14.033Z,19.30
2018-05-15T01:01:51.410Z,19.30
2018-05-15T01:02:28.888Z,19.30
2018-05-15T01:03:06.293Z,19.30
2018-05-15T01:03:43.642Z,19.30
2018-05-15T01:04:21.750Z,19.20
2018-05-15T01:04:59.084Z,19.20
2018-05-15T01:05:36.459Z,19.20
2018-05-15T01:06:13.619Z,19.20
2018-05-15T01:06:51.571Z,19.20
2018-05-15T01:07:29.019Z,19.20
2018-05-15T01:08:06.428Z,19.20
2018-05-15T01:08:44.471Z,19.20
2018-05-15T01:09:21.756Z,19.20
2018-05-15T01:09:59.144Z,19.20
2018-05-15T01:10:37.171Z,19.30
2018-05-15T01:11:14.559Z,19.30
2018-05-15T01:11:52.730Z,19.20
2018-05-15T01:12:30.148Z,19.20
2018-05-15T01:13:07.439Z,19.20
2018-05-15T01:13:44.837Z,19.20
2018-05-15T01:14:22.274Z,19.20
2018-05-15T01:14:59.607Z,19.30
2018-05-15T01:15:37.084Z,19.30
2018-05-15T01:16:14.397Z,19.30
2018-05-15T01:16:51.622Z,19.30
2018-05-15T01:17:29.056Z,19.30
2018-05-15T01:18:07.164Z,19.30
2018-05-15T01:18:44.499Z,19.30
2018-05-15T01:19:21.869Z,19.30
2018-05-15T01:19:59.974Z,19.30
2018-05-15T01:20:37.211Z,19.30
2018-05-15T01:21:15.334Z,19.30
2018-05-15T01:21:52.718Z,19.30
2018-05-15T01:22:30.896Z,19.30
2018-05-15T01:23:08.232Z,19.30
2018-05-15T01:23:45.682Z,19.30
2018-05-15T01:24:23.059Z,19.30
2018-05-15T01:25:00.282Z,19.30
2018-05-15T01:25:37.452Z,19.40
2018-05-15T01:26:14.863Z,19.40
2018-05-15T01:26:52.243Z,19.40
2018-05-15T01:27:29.687Z,19.40
2018-05-15T01:28:07.170Z,19.40
2018-05-15T01:28:45.242Z,19.40
2018-05-15T01:29:22.531Z,19.40
2018-05-15T01:29:59.933Z,19.40
2018-05-15T01:30:37.228Z,19.40
2018-05-15T01:31:15.402Z,19.40
2018-05-15T01:31:52.782Z,19.40
2018-05-15T01:32:30.233Z,19.30
2018-05-15T01:33:07.615Z,19.40
2018-05-15T01:33:45.063Z,19.30
2018-05-15T01:34:22.518Z,19.40
2018-05-15T01:35:00.686Z,19.40
2018-05-15T01:35:38.032Z,19.40
2018-05-15T01:36:15.236Z,19.40
2018-05-15T01:36:53.435Z,19.40
2018-05-15T01:37:30.882Z,19.40
2018-05-15T01:38:08.284Z,19.50
2018-05-15T01:38:46.464Z,19.40
2018-05-15T01:39:23.881Z,19.40
2018-05-15T01:40:02.039Z,19.40
2018-05-15T01:40:39.952Z,19.40
2018-05-15T01:41:17.899Z,19.40
2018-05-15T01:41:55.220Z,19.40
2018-05-15T01:42:32.506Z,19.40
2018-05-15T01:43:09.910Z,19.40
2018-05-15T01:43:47.363Z,19.50
2018-05-15T01:44:24.749Z,19.40
2018-05-15T01:45:02.705Z,19.40
2018-05-15T01:45:40.056Z,19.40
2018-05-15T01:46:17.221Z,19.40
2018-05-15T01:46:54.543Z,19.40
2018-05-15T01:47:31.714Z,19.40
2018-05-15T01:48:09.901Z,19.50
2018-05-15T01:48:47.302Z,19.40
2018-05-15T01:49:25.385Z,19.50
2018-05-15T01:50:02.849Z,19.50
2018-05-15T01:50:40.047Z,19.50
2018-05-15T01:51:17.258Z,19.40
2018-05-15T01:51:55.490Z,19.40
2018-05-15T01:52:32.846Z,19.40
2018-05-15T01:53:10.111Z,19.40
2018-05-15T01:53:47.466Z,19.40
2018-05-15T01:54:24.806Z,19.40
2018-05-15T01:55:02.215Z,19.40
2018-05-15T01:55:40.410Z,19.40
2018-05-15T01:56:17.568Z,19.40
2018-05-15T01:56:54.938Z,19.40
2018-05-15T01:57:32.188Z,19.40
2018-05-15T01:58:09.613Z,19.40
2018-05-15T01:58:47.695Z,19.50
2018-05-15T01:59:24.983Z,19.50
2018-05-15T02:00:03.166Z,19.50
2018-05-15T02:00:40.547Z,19.50
2018-05-15T02:01:18.016Z,19.50
2018-05-15T02:01:55.361Z,19.60
2018-05-15T02:02:33.502Z,19.50
2018-05-15T02:03:10.846Z,19.50
2018-05-15T02:03:49.083Z,19.40
2018-05-15T02:04:26.428Z,19.40
2018-05-15T02:05:03.801Z,19.40
2018-05-15T02:05:41.278Z,19.40
2018-05-15T02:06:18.720Z,19.50
2018-05-15T02:06:55.862Z,19.50
2018-05-15T02:07:33.230Z,19.50
2018-05-15T02:08:10.709Z,19.50
2018-05-15T02:08:48.035Z,19.50
2018-05-15T02:09:25.476Z,19.50
2018-05-15T02:10:03.676Z,19.50
2018-05-15T02:10:40.874Z,19.50
2018-05-15T02:11:18.985Z,19.50
2018-05-15T02:11:56.287Z,19.50
2018-05-15T02:12:33.550Z,19.50
2018-05-15T02:13:10.784Z,19.50
2018-05-15T02:13:48.934Z,19.40
2018-05-15T02:14:26.364Z,19.40
2018-05-15T02:15:03.711Z,19.40
2018-05-15T02:15:41.886Z,19.30
2018-05-15T02:16:19.319Z,19.40
2018-05-15T02:16:56.614Z,19.40
2018-05-15T02:17:33.986Z,19.40
2018-05-15T02:18:11.379Z,19.40
2018-05-15T02:18:48.660Z,19.40
2018-05-15T02:19:26.099Z,19.40
2018-05-15T02:20:03.674Z,19.40
2018-05-15T02:20:41.032Z,19.40
2018-05-15T02:21:18.447Z,19.50
2018-05-15T02:21:55.862Z,19.50
2018-05-15T02:22:33.160Z,19.50
2018-05-15T02:23:10.418Z,19.50
2018-05-15T02:23:47.880Z,19.50
2018-05-15T02:24:25.993Z,19.40
2018-05-15T02:25:03.223Z,19.40
2018-05-15T02:25:40.594Z,19.40
2018-05-15T02:26:18.000Z,19.40
2018-05-15T02:26:55.345Z,19.40
2018-05-15T02:27:33.571Z,19.40
2018-05-15T02:28:11.579Z,19.40
2018-05-15T02:28:49.047Z,19.40
2018-05-15T02:29:27.030Z,19.40
2018-05-15T02:30:04.334Z,19.40
2018-05-15T02:30:41.541Z,19.40
2018-05-15T02:31:18.912Z,19.40
2018-05-15T02:31:56.331Z,19.50
2018-05-15T02:32:33.526Z,19.50
2018-05-15T02:33:11.699Z,19.50
2018-05-15T02:33:49.986Z,19.50
2018-05-15T02:34:27.225Z,19.50
2018-05-15T02:35:05.466Z,19.50
2018-05-15T02:35:43.653Z,19.50
2018-05-15T02:36:20.911Z,19.50
2018-05-15T02:36:59.090Z,19.50
2018-05-15T02:37:36.394Z,19.50
2018-05-15T02:38:13.736Z,19.50
2018-05-15T02:38:51.232Z,19.50
2018-05-15T02:39:29.304Z,19.50
2018-05-15T02:40:07.504Z,19.50
2018-05-15T02:40:44.897Z,19.50
2018-05-15T02:41:22.865Z,19.60
2018-05-15T02:42:01.114Z,19.60
2018-05-15T02:42:39.056Z,19.60
2018-05-15T02:43:17.154Z,19.60
2018-05-15T02:43:55.608Z,19.60
2018-05-15T02:44:32.784Z,19.60
2018-05-15T02:45:10.165Z,19.60
2018-05-15T02:45:48.071Z,19.60
2018-05-15T02:46:26.178Z,19.60
2018-05-15T02:47:03.624Z,19.60
2018-05-15T02:47:40.856Z,19.60
2018-05-15T02:48:19.026Z,19.60
2018-05-15T02:48:57.155Z,19.60
2018-05-15T02:49:34.458Z,19.60
2018-05-15T02:50:12.685Z,19.60
2018-05-15T02:50:50.067Z,19.60
2018-05-15T02:51:28.261Z,19.60
2018-05-15T02:52:05.434Z,19.60
2018-05-15T02:52:42.727Z,19.60
2018-05-15T02:53:20.871Z,19.70
2018-05-15T02:53:58.447Z,19.70
2018-05-15T02:54:36.400Z,19.70
2018-05-15T02:55:13.665Z,19.70
2018-05-15T02:55:51.758Z,19.70
2018-05-15T02:56:29.095Z,19.70
2018-05-15T02:57:06.370Z,19.70
2018-05-15T02:57:44.574Z,19.80
2018-05-15T02:58:21.866Z,19.70
2018-05-15T02:59:00.307Z,19.70
2018-05-15T02:59:37.547Z,19.70
2018-05-15T03:00:15.560Z,19.70
2018-05-15T03:00:52.986Z,19.80
2018-05-15T03:01:31.218Z,19.80
2018-05-15T03:02:08.480Z,19.80
2018-05-15T03:02:45.853Z,19.80
2018-05-15T03:03:23.280Z,19.80
2018-05-15T03:04:01.406Z,19.80
2018-05-15T03:04:38.610Z,19.80
2018-05-15T03:05:16.788Z,19.80
2018-05-15T03:05:55.127Z,19.80
2018-05-15T03:06:32.507Z,19.80
2018-05-15T03:07:10.662Z,19.80
2018-05-15T03:07:47.933Z,19.80
2018-05-15T03:08:26.138Z,19.90
2018-05-15T03:09:03.411Z,19.80
2018-05-15T03:09:41.521Z,19.80
2018-05-15T03:10:19.015Z,19.80
2018-05-15T03:10:56.468Z,19.80
2018-05-15T03:11:34.717Z,19.90
2018-05-15T03:12:12.837Z,19.90
2018-05-15T03:12:50.233Z,19.90
2018-05-15T03:13:27.630Z,19.90
2018-05-15T03:14:05.070Z,19.90
2018-05-15T03:14:42.554Z,19.90
2018-05-15T03:15:19.755Z,19.90
2018-05-15T03:15:57.133Z,19.90
2018-05-15T03:16:35.303Z,19.90
2018-05-15T03:17:12.568Z,19.90
2018-05-15T03:17:50.769Z,19.90
2018-05-15T03:18:28.006Z,19.90
2018-05-15T03:19:06.289Z,19.90
2018-05-15T03:19:43.589Z,19.90
2018-05-15T03:20:21.513Z,19.90
2018-05-15T03:20:58.959Z,20.00
2018-05-15T03:21:36.438Z,19.90
2018-05-15T03:22:14.551Z,20.00
2018-05-15T03:22:51.910Z,20.00
2018-05-15T03:23:30.047Z,19.90
2018-05-15T03:24:08.034Z,20.00
2018-05-15T03:24:45.298Z,20.00
2018-05-15T03:25:22.738Z,20.00
2018-05-15T03:26:00.761Z,20.00
2018-05-15T03:26:38.751Z,20.00
2018-05-15T03:27:16.131Z,20.00
2018-05-15T03:27:53.606Z,20.00
2018-05-15T03:28:30.790Z,20.00
2018-05-15T03:29:08.183Z,20.00
2018-05-15T03:29:45.359Z,20.00
2018-05-15T03:30:22.777Z,20.00
2018-05-15T03:30:59.974Z,20.00
2018-05-15T03:31:37.348Z,20.00
2018-05-15T03:32:15.597Z,20.00
2018-05-15T03:32:53.029Z,20.00
2018-05-15T03:33:30.436Z,20.00
2018-05-15T03:34:07.862Z,19.90
2018-05-15T03:34:45.253Z,19.90
2018-05-15T03:35:22.705Z,19.90
2018-05-15T03:36:00.119Z,20.00
2018-05-15T03:36:37.522Z,19.90
2018-05-15T03:37:14.984Z,19.90
2018-05-15T03:37:52.232Z,20.00
2018-05-15T03:38:29.600Z,20.00
2018-05-15T03:39:07.827Z,20.00
2018-05-15T03:39:45.065Z,20.00
2018-05-15T03:40:22.358Z,20.00
2018-05-15T03:40:59.632Z,20.00
2018-05-15T03:41:37.007Z,20.00
2018-05-15T03:42:14.357Z,20.00
2018-05-15T03:42:52.604Z,20.00
2018-05-15T03:43:30.048Z,20.00
2018-05-15T03:44:07.223Z,20.00
2018-05-15T03:44:44.499Z,20.00
2018-05-15T03:45:21.751Z,20.00
2018-05-15T03:45:59.022Z,20.10
2018-05-15T03:46:37.088Z,20.10
2018-05-15T03:47:14.494Z,20.10
2018-05-15T03:47:52.619Z,20.10
2018-05-15T03:48:29.958Z,20.10
2018-05-15T03:49:07.419Z,20.10
2018-05-15T03:49:45.574Z,20.10
2018-05-15T03:50:23.779Z,20.10
2018-05-15T03:51:01.990Z,20.10
2018-05-15T03:51:39.371Z,20.10
2018-05-15T03:52:16.814Z,20.10
2018-05-15T03:52:55.020Z,20.10
2018-05-15T03:53:33.204Z,20.20
2018-05-15T03:54:11.232Z,20.10
2018-05-15T03:54:48.677Z,20.10
2018-05-15T03:55:26.886Z,20.20
2018-05-15T03:56:04.284Z,20.10
2018-05-15T03:56:41.525Z,20.10
2018-05-15T03:57:19.007Z,20.10
2018-05-15T03:57:56.345Z,20.10
2018-05-15T03:58:33.798Z,20.20
2018-05-15T03:59:11.198Z,20.20
2018-05-15T03:59:49.459Z,20.10
2018-05-15T04:00:26.761Z,20.10
2018-05-15T04:01:04.173Z,20.10
2018-05-15T04:01:41.329Z,20.20
2018-05-15T04:02:18.822Z,20.20
2018-05-15T04:02:56.917Z,20.20
2018-05-15T04:03:34.072Z,20.20
2018-05-15T04:04:11.263Z,20.20
2018-05-15T04:04:49.244Z,20.20
2018-05-15T04:05:26.462Z,20.20
2018-05-15T04:06:03.834Z,20.20
2018-05-15T04:06:40.977Z,20.20
2018-05-15T04:07:18.388Z,20.20
2018-05-15T04:07:55.780Z,20.20
2018-05-15T04:08:33.089Z,20.20
2018-05-15T04:09:10.244Z,20.20
2018-05-15T04:09:47.561Z,20.20
2018-05-15T04:10:25.751Z,20.20
2018-05-15T04:11:03.244Z,20.20
2018-05-15T04:11:41.366Z,20.20
2018-05-15T04:12:18.718Z,20.20
2018-05-15T04:12:56.730Z,20.30
2018-05-15T04:13:34.015Z,20.30
2018-05-15T04:14:11.295Z,20.30
2018-05-15T04:14:49.343Z,20.30
2018-05-15T04:15:26.567Z,20.30
2018-05-15T04:16:04.053Z,20.30
2018-05-15T04:16:42.289Z,20.30
2018-05-15T04:17:20.388Z,20.30
2018-05-15T04:17:57.637Z,20.30
2018-05-15T04:18:35.090Z,20.30
2018-05-15T04:19:13.334Z,20.30
2018-05-15T04:19:51.418Z,20.30
2018-05-15T04:20:28.726Z,20.20
2018-05-15T04:21:05.919Z,20.30
2018-05-15T04:21:43.103Z,20.30
2018-05-15T04:22:20.602Z,20.20
2018-05-15T04:22:57.910Z,20.20
2018-05-15T04:23:35.164Z,20.20
2018-05-15T04:24:13.375Z,20.20
2018-05-15T04:24:51.489Z,20.20
2018-05-15T04:25:28.831Z,20.20
2018-05-15T04:26:06.028Z,20.20
2018-05-15T04:26:44.214Z,20.30
2018-05-15T04:27:21.521Z,20.20
2018-05-15T04:27:59.848Z,20.30
2018-05-15T04:28:37.011Z,20.20
2018-05-15T04:29:15.239Z,20.20
2018-05-15T04:29:52.634Z,20.10
2018-05-15T04:30:30.018Z,20.20
2018-05-15T04:31:08.177Z,20.20
2018-05-15T04:31:46.303Z,20.20
2018-05-15T04:32:24.527Z,20.20
2018-05-15T04:33:01.711Z,20.20
2018-05-15T04:33:39.178Z,20.20
2018-05-15T04:34:16.431Z,20.30
2018-05-15T04:34:54.632Z,20.20
2018-05-15T04:35:31.979Z,20.20
2018-05-15T04:36:09.179Z,20.20
2018-05-15T04:36:47.372Z,20.20
2018-05-15T04:37:24.705Z,20.20
2018-05-15T04:38:02.016Z,20.20
2018-05-15T04:38:40.203Z,20.30
2018-05-15T04:39:18.404Z,20.30
2018-05-15T04:39:55.734Z,20.30
2018-05-15T04:40:33.130Z,20.30
2018-05-15T04:41:10.495Z,20.30
2018-05-15T04:41:48.399Z,20.30
2018-05-15T04:42:25.683Z,20.30
2018-05-15T04:43:03.871Z,20.40
2018-05-15T04:43:42.081Z,20.30
2018-05-15T04:44:19.442Z,20.30
2018-05-15T04:44:57.691Z,20.40
2018-05-15T04:45:35.644Z,20.30
2018-05-15T04:46:13.021Z,20.40
2018-05-15T04:46:51.094Z,20.30
2018-05-15T04:47:29.084Z,20.40
2018-05-15T04:48:06.461Z,20.30
2018-05-15T04:48:43.829Z,20.30
2018-05-15T04:49:20.991Z,20.30
2018-05-15T04:49:59.172Z,20.30
2018-05-15T04:50:37.116Z,20.40
2018-05-15T04:51:15.194Z,20.40
2018-05-15T04:51:52.597Z,20.40
2018-05-15T04:52:29.811Z,20.40
2018-05-15T04:53:07.102Z,20.40
2018-05-15T04:53:44.492Z,20.40
2018-05-15T04:54:21.754Z,20.40
2018-05-15T04:54:59.109Z,20.40
2018-05-15T04:55:36.716Z,20.40
2018-05-15T04:56:14.135Z,20.40
2018-05-15T04:56:51.472Z,20.40
2018-05-15T04:57:29.669Z,20.40
2018-05-15T04:58:07.879Z,20.40
2018-05-15T04:58:45.385Z,20.40
2018-05-15T04:59:23.554Z,20.50
2018-05-15T05:00:00.895Z,20.40
2018-05-15T05:00:38.914Z,20.50
2018-05-15T05:01:16.272Z,20.50
2018-05-15T05:01:53.694Z,20.50
2018-05-15T05:02:31.759Z,20.50
2018-05-15T05:03:08.884Z,20.50
2018-05-15T05:03:46.290Z,20.50
2018-05-15T05:04:23.667Z,20.50
2018-05-15T05:05:01.105Z,20.50
2018-05-15T05:05:39.165Z,20.40
2018-05-15T05:06:17.351Z,20.40
2018-05-15T05:06:54.708Z,20.40
2018-05-15T05:07:32.726Z,20.40
2018-05-15T05:08:09.956Z,20.40
2018-05-15T05:08:47.411Z,20.40
2018-05-15T05:09:25.608Z,20.40
2018-05-15T05:10:02.918Z,20.40
2018-05-15T05:10:40.214Z,20.40
2018-05-15T05:11:17.634Z,20.40
2018-05-15T05:11:55.748Z,20.40
2018-05-15T05:12:33.108Z,20.30
2018-05-15T05:13:10.597Z,20.40
2018-05-15T05:13:48.818Z,20.30
2018-05-15T05:14:26.266Z,20.30
2018-05-15T05:15:03.597Z,20.30
2018-05-15T05:15:40.953Z,20.20
2018-05-15T05:16:18.391Z,20.20
2018-05-15T05:16:55.690Z,20.10
2018-05-15T05:17:32.957Z,20.20
2018-05-15T05:18:10.988Z,20.10
2018-05-15T05:18:49.059Z,20.10
2018-05-15T05:19:27.039Z,20.10
2018-05-15T05:20:04.342Z,20.10
2018-05-15T05:20:41.548Z,20.10
2018-05-15T05:21:18.882Z,20.10
2018-05-15T05:21:56.113Z,20.10
2018-05-15T05:22:33.523Z,20.10
2018-05-15T05:23:11.708Z,19.90
2018-05-15T05:23:49.124Z,19.90
2018-05-15T05:24:27.286Z,20.00
2018-05-15T05:25:05.527Z,20.00
2018-05-15T05:25:42.759Z,20.00
2018-05-15T05:26:20.957Z,20.00
2018-05-15T05:26:58.209Z,20.00
2018-05-15T05:27:36.422Z,19.90
2018-05-15T05:28:13.661Z,19.90
2018-05-15T05:28:51.099Z,19.90
2018-05-15T05:29:28.271Z,19.90
2018-05-15T05:30:05.528Z,19.90
2018-05-15T05:30:42.818Z,19.90
2018-05-15T05:31:20.042Z,19.80
2018-05-15T05:31:58.184Z,19.90
2018-05-15T05:32:35.521Z,19.80
2018-05-15T05:33:13.535Z,19.90
2018-05-15T05:33:50.960Z,19.80
2018-05-15T05:34:28.360Z,19.80
2018-05-15T05:35:05.788Z,19.80
2018-05-15T05:35:43.777Z,19.70
2018-05-15T05:36:21.947Z,19.80
2018-05-15T05:36:59.202Z,19.80
2018-05-15T05:37:36.633Z,19.80
2018-05-15T05:38:14.623Z,19.70
2018-05-15T05:38:51.852Z,19.70
2018-05-15T05:39:29.223Z,19.70
2018-05-15T05:40:06.588Z,19.80
2018-05-15T05:40:43.919Z,19.80
2018-05-15T05:41:21.897Z,19.80
2018-05-15T05:41:59.187Z,19.70
2018-05-15T05:42:36.385Z,19.80
2018-05-15T05:43:13.686Z,19.70
2018-05-15T05:43:50.962Z,19.70
2018-05-15T05:44:29.081Z,19.70
2018-05-15T05:45:07.297Z,19.70
2018-05-15T05:45:44.755Z,19.70
2018-05-15T05:46:22.028Z,19.70
2018-05-15T05:46:59.426Z,19.60
2018-05-15T05:47:36.742Z,19.60
2018-05-15T05:48:14.280Z,19.60
2018-05-15T05:48:52.464Z,19.60
2018-05-15T05:49:29.888Z,19.60
2018-05-15T05:50:07.128Z,19.60
2018-05-15T05:50:44.421Z,19.70
2018-05-15T05:51:21.912Z,19.70
2018-05-15T05:51:59.193Z,19.70
2018-05-15T05:52:36.410Z,19.70
2018-05-15T05:53:13.586Z,19.70
2018-05-15T05:53:51.009Z,19.70
2018-05-15T05:54:29.049Z,19.70
2018-05-15T05:55:06.418Z,19.70
2018-05-15T05:55:43.910Z,19.70
2018-05-15T05:56:21.994Z,19.70
2018-05-15T05:57:00.184Z,19.80
2018-05-15T05:57:37.413Z,19.80
2018-05-15T05:58:14.841Z,19.80
2018-05-15T05:58:52.910Z,19.90
2018-05-15T05:59:30.147Z,20.00
2018-05-15T06:00:07.324Z,20.00
2018-05-15T06:00:44.543Z,20.00
2018-05-15T06:01:21.767Z,20.00
2018-05-15T06:01:59.065Z,20.10
2018-05-15T06:02:37.250Z,20.00
2018-05-15T06:03:15.379Z,20.00
2018-05-15T06:03:52.737Z,20.00
2018-05-15T06:04:30.015Z,20.00
2018-05-15T06:05:07.287Z,20.00
2018-05-15T06:05:44.744Z,20.00
2018-05-15T06:06:22.778Z,20.00
2018-05-15T06:06:59.993Z,20.00
2018-05-15T06:07:38.241Z,20.00
2018-05-15T06:08:15.619Z,20.00
2018-05-15T06:08:53.710Z,20.00
2018-05-15T06:09:31.118Z,20.00
2018-05-15T06:10:08.362Z,20.00
2018-05-15T06:10:45.612Z,19.90
2018-05-15T06:11:23.726Z,19.90
2018-05-15T06:12:00.974Z,19.80
2018-05-15T06:12:38.322Z,19.90
2018-05-15T06:13:15.678Z,19.80
2018-05-15T06:13:52.860Z,19.80
2018-05-15T06:14:30.059Z,19.80
2018-05-15T06:15:07.414Z,19.80
2018-05-15T06:15:44.867Z,19.90
2018-05-15T06:16:22.107Z,19.90
2018-05-15T06:17:00.145Z,19.90
2018-05-15T06:17:37.315Z,19.90
2018-05-15T06:18:15.538Z,19.90
2018-05-15T06:18:52.677Z,19.90
2018-05-15T06:19:29.905Z,19.80
2018-05-15T06:20:07.192Z,19.80
2018-05-15T06:20:44.463Z,19.80
2018-05-15T06:21:21.612Z,19.80
2018-05-15T06:21:58.915Z,19.90
2018-05-15T06:22:37.134Z,19.80
2018-05-15T06:23:14.537Z,19.80
2018-05-15T06:23:51.978Z,19.70
2018-05-15T06:24:29.374Z,19.80
2018-05-15T06:25:06.791Z,19.80
2018-05-15T06:25:44.188Z,19.70
2018-05-15T06:26:21.647Z,19.80
2018-05-15T06:26:58.962Z,19.80
2018-05-15T06:27:37.175Z,19.80
2018-05-15T06:28:14.466Z,19.80
2018-05-15T06:28:52.515Z,19.80
2018-05-15T06:29:29.917Z,19.80
2018-05-15T06:30:08.090Z,19.70
2018-05-15T06:30:46.296Z,19.70
2018-05-15T06:31:23.659Z,19.70
2018-05-15T06:32:01.108Z,19.70
2018-05-15T06:32:39.158Z,19.60
2018-05-15T06:33:16.491Z,19.60
2018-05-15T06:33:54.545Z,19.50
2018-05-15T06:34:32.476Z,19.50
2018-05-15T06:35:09.850Z,19.50
2018-05-15T06:35:47.054Z,19.50
2018-05-15T06:36:24.491Z,19.40
2018-05-15T06:37:01.757Z,19.30
2018-05-15T06:37:39.695Z,19.40
2018-05-15T06:38:17.064Z,19.40
2018-05-15T06:38:54.234Z,19.40
2018-05-15T06:39:32.432Z,19.40
2018-05-15T06:40:10.447Z,19.40
2018-05-15T06:40:47.905Z,19.40
2018-05-15T06:41:25.988Z,19.50
2018-05-15T06:42:03.301Z,19.50
2018-05-15T06:42:41.459Z,19.50
2018-05-15T06:43:18.688Z,19.50
2018-05-15T06:43:56.839Z,19.60
2018-05-15T06:44:34.103Z,19.70
2018-05-15T06:45:12.186Z,19.70
2018-05-15T06:45:50.401Z,19.60
2018-05-15T06:46:27.702Z,19.70
2018-05-15T06:47:04.905Z,19.70
2018-05-15T06:47:42.228Z,19.60
2018-05-15T06:48:19.458Z,19.60
2018-05-15T06:48:56.883Z,19.60
2018-05-15T06:49:34.318Z,19.60
2018-05-15T06:50:11.585Z,19.60
2018-05-15T06:50:48.967Z,19.60
2018-05-15T06:51:26.398Z,19.70
2018-05-15T06:52:04.332Z,19.70
2018-05-15T06:52:41.848Z,19.70
2018-05-15T06:53:19.914Z,19.70
2018-05-15T06:53:57.189Z,19.70
2018-05-15T06:54:35.384Z,19.80
2018-05-15T06:55:12.778Z,19.70
2018-05-15T06:55:50.166Z,19.70
2018-05-15T06:56:27.641Z,19.70
2018-05-15T06:57:05.051Z,19.70
2018-05-15T06:57:42.417Z,19.60
2018-05-15T06:58:20.620Z,19.70
2018-05-15T06:58:57.838Z,19.60
2018-05-15T06:59:35.952Z,19.70
2018-05-15T07:00:14.059Z,19.70
2018-05-15T07:00:51.499Z,19.70
2018-05-15T07:01:28.683Z,19.60
2018-05-15T07:02:06.788Z,19.70
2018-05-15T07:02:44.809Z,19.70
2018-05-15T07:03:22.045Z,19.70
2018-05-15T07:03:59.241Z,19.70
2018-05-15T07:04:36.536Z,19.80
2018-05-15T07:05:14.506Z,19.70
2018-05-15T07:05:51.853Z,19.70
2018-05-15T07:06:29.917Z,19.80
2018-05-15T07:07:07.312Z,19.70
2018-05-15T07:07:44.783Z,19.70
2018-05-15T07:08:21.881Z,19.80
2018-05-15T07:08:59.085Z,19.70
2018-05-15T07:09:36.400Z,19.70
2018-05-15T07:10:13.627Z,19.70
2018-05-15T07:10:50.868Z,19.70
2018-05-15T07:11:28.290Z,19.70
2018-05-15T07:12:05.725Z,19.70
2018-05-15T07:12:43.063Z,19.70
2018-05-15T07:13:20.291Z,19.70
2018-05-15T07:13:58.454Z,19.70
2018-05-15T07:14:35.835Z,19.70
2018-05-15T07:15:13.046Z,19.70
2018-05-15T07:15:50.229Z,19.70
2018-05-15T07:16:28.395Z,19.70
2018-05-15T07:17:05.594Z,19.70
2018-05-15T07:17:43.007Z,19.60
2018-05-15T07:18:21.146Z,19.60
2018-05-15T07:18:58.586Z,19.60
2018-05-15T07:19:35.969Z,19.60
2018-05-15T07:20:14.107Z,19.60
2018-05-15T07:20:51.430Z,19.60
2018-05-15T07:21:29.654Z,19.60
2018-05-15T07:22:07.039Z,19.60
2018-05-15T07:22:44.357Z,19.60
2018-05-15T07:23:21.759Z,19.70
2018-05-15T07:23:59.258Z,19.70
2018-05-15T07:24:36.772Z,19.80
2018-05-15T07:25:14.944Z,19.80
2018-05-15T07:25:52.629Z,19.80
2018-05-15T07:26:29.551Z,19.70
2018-05-15T07:27:07.677Z,19.70
2018-05-15T07:27:45.090Z,19.70
2018-05-15T07:28:23.288Z,19.80
2018-05-15T07:29:01.472Z,19.80
2018-05-15T07:29:39.650Z,19.80
2018-05-15T07:30:17.032Z,19.80
2018-05-15T07:30:54.518Z,19.80
2018-05-15T07:31:31.914Z,19.90
2018-05-15T07:32:09.330Z,19.90
2018-05-15T07:32:46.578Z,19.90
2018-05-15T07:33:23.967Z,19.90
2018-05-15T07:34:02.094Z,19.90
2018-05-15T07:34:39.490Z,19.90
2018-05-15T07:35:16.642Z,19.80
2018-05-15T07:35:54.045Z,19.90
2018-05-15T07:36:31.514Z,19.90
2018-05-15T07:37:09.701Z,19.90
2018-05-15T07:37:46.924Z,19.90
2018-05-15T07:38:25.185Z,19.90
2018-05-15T07:39:02.544Z,19.90
2018-05-15T07:39:40.789Z,19.90
2018-05-15T07:40:18.010Z,19.80
2018-05-15T07:40:55.378Z,19.90
2018-05-15T07:41:32.538Z,19.90
2018-05-15T07:42:09.956Z,19.80
2018-05-15T07:42:47.315Z,19.80
2018-05-15T07:43:24.494Z,19.70
2018-05-15T07:44:01.956Z,19.70
2018-05-15T07:44:39.388Z,19.70
2018-05-15T07:45:16.649Z,19.70
2018-05-15T07:45:54.789Z,19.70
2018-05-15T07:46:32.156Z,19.70
2018-05-15T07:47:10.387Z,19.70
2018-05-15T07:47:47.690Z,19.70
2018-05-15T07:48:25.841Z,19.70
2018-05-15T07:49:04.030Z,19.70
2018-05-15T07:49:41.195Z,19.80
2018-05-15T07:50:18.567Z,19.80
2018-05-15T07:50:55.858Z,19.80
2018-05-15T07:51:33.850Z,19.80
2018-05-15T07:52:11.243Z,19.80
2018-05-15T07:52:48.605Z,19.80
2018-05-15T07:53:25.842Z,19.80
2018-05-15T07:54:03.242Z,19.80
2018-05-15T07:54:40.628Z,19.80
2018-05-15T07:55:17.989Z,19.80
2018-05-15T07:55:56.107Z,19.80
2018-05-15T07:56:34.080Z,19.90
2018-05-15T07:57:11.526Z,19.90
2018-05-15T07:57:49.580Z,19.90
2018-05-15T07:58:26.924Z,19.90
2018-05-15T07:59:05.044Z,19.80
2018-05-15T07:59:43.037Z,19.80
2018-05-15T08:00:21.298Z,19.80
2018-05-15T08:00:59.320Z,19.80
2018-05-15T08:01:36.568Z,19.90
2018-05-15T08:02:13.842Z,19.90
2018-05-15T08:02:52.081Z,19.90
2018-05-15T08:03:29.388Z,19.90
2018-05-15T08:04:07.535Z,19.90